createdAt,value
2019-04-10T00:01:04.358Z,9.76
2019-04-10T00:03:37.322Z,9.75
2019-04-10T00:06:04.592Z,9.71
2019-04-10T00:08:33.093Z,9.69
2019-04-10T00:11:02.581Z,9.64
2019-04-10T00:13:31.016Z,9.62
2019-04-10T00:15:59.474Z,9.56
2019-04-10T00:18:27.868Z,9.53
2019-04-10T00:20:56.677Z,9.51
2019-04-10T00:23:25.227Z,9.50
2019-04-10T00:25:53.783Z,9.46
2019-04-10T00:28:23.304Z,9.43
2019-04-10T00:30:51.754Z,9.41
2019-04-10T00:33:20.796Z,9.38
2019-04-10T00:35:49.884Z,9.32
2019-04-10T00:38:18.375Z,9.30
2019-04-10T00:40:47.793Z,9.25
2019-04-10T00:43:17.046Z,9.21
2019-04-10T00:45:46.000Z,9.18
2019-04-10T00:48:15.285Z,9.15
2019-04-10T00:50:44.594Z,9.11
2019-04-10T00:53:13.065Z,9.07
2019-04-10T00:55:41.456Z,9.02
2019-04-10T00:58:10.017Z,8.97
2019-04-10T01:00:39.215Z,8.95
2019-04-10T01:03:07.797Z,8.91
2019-04-10T01:05:36.190Z,8.86
2019-04-10T01:08:04.577Z,8.84
2019-04-10T01:10:32.967Z,8.82
2019-04-10T01:13:01.369Z,8.78
2019-04-10T01:15:30.808Z,8.74
2019-04-10T01:17:59.281Z,8.70
2019-04-10T01:20:27.668Z,8.70
2019-04-10T01:22:57.248Z,8.66
2019-04-10T01:25:26.212Z,8.63
2019-04-10T01:27:54.594Z,8.60
2019-04-10T01:30:22.996Z,8.58
2019-04-10T01:32:52.244Z,8.56
2019-04-10T01:35:20.762Z,8.52
2019-04-10T01:37:54.541Z,8.46
2019-04-10T01:40:20.725Z,8.43
2019-04-10T01:43:02.359Z,8.38
2019-04-10T01:45:20.202Z,8.34
2019-04-10T01:47:48.588Z,8.31
2019-04-10T01:50:17.952Z,8.29
2019-04-10T01:52:47.117Z,8.26
2019-04-10T01:55:23.111Z,8.20
2019-04-10T01:57:46.334Z,8.19
2019-04-10T02:00:19.514Z,8.18
2019-04-10T02:02:54.045Z,8.13
2019-04-10T02:05:22.799Z,8.08
2019-04-10T02:08:01.240Z,8.06
2019-04-10T02:10:21.396Z,8.01
2019-04-10T02:12:50.849Z,8.01
2019-04-10T02:15:19.680Z,7.95
2019-04-10T02:17:48.700Z,7.93
2019-04-10T02:20:17.321Z,7.90
2019-04-10T02:22:45.881Z,7.84
2019-04-10T02:25:15.770Z,7.78
2019-04-10T02:27:44.694Z,7.75
2019-04-10T02:30:15.086Z,7.72
2019-04-10T02:32:47.653Z,7.69
2019-04-10T02:35:17.151Z,7.65
2019-04-10T02:37:44.268Z,7.62
2019-04-10T02:40:15.078Z,7.58
2019-04-10T02:42:45.028Z,7.56
2019-04-10T02:45:14.872Z,7.52
2019-04-10T02:47:45.011Z,7.49
2019-04-10T02:50:14.266Z,7.46
2019-04-10T02:52:43.259Z,7.43
2019-04-10T02:55:12.151Z,7.40
2019-04-10T02:57:41.358Z,7.40
2019-04-10T03:00:11.031Z,7.39
2019-04-10T03:02:41.642Z,7.36
2019-04-10T03:05:10.822Z,7.32
2019-04-10T03:07:40.332Z,7.28
2019-04-10T03:10:20.499Z,7.23
2019-04-10T03:12:41.072Z,7.19
2019-04-10T03:15:12.295Z,7.15
2019-04-10T03:17:40.226Z,7.16
2019-04-10T03:20:09.947Z,7.13
2019-04-10T03:22:38.446Z,7.12
2019-04-10T03:25:08.878Z,7.10
2019-04-10T03:27:38.567Z,7.07
2019-04-10T03:30:10.008Z,7.05
2019-04-10T03:32:43.561Z,7.04
2019-04-10T03:35:14.549Z,7.04
2019-04-10T03:37:43.004Z,7.03
2019-04-10T03:40:11.534Z,7.01
2019-04-10T03:42:39.923Z,7.00
2019-04-10T03:45:09.568Z,6.99
2019-04-10T03:47:38.039Z,6.98
2019-04-10T03:50:08.743Z,6.96
2019-04-10T03:52:37.831Z,6.96
2019-04-10T03:55:06.956Z,6.94
2019-04-10T03:57:36.406Z,6.93
2019-04-10T04:00:06.812Z,6.91
2019-04-10T04:02:35.926Z,6.92
2019-04-10T04:05:06.534Z,6.92
2019-04-10T04:07:35.013Z,6.92
2019-04-10T04:10:04.421Z,6.45
2019-04-10T04:12:32.873Z,6.90
2019-04-10T04:15:02.245Z,6.91
2019-04-10T04:17:32.453Z,6.88
2019-04-10T04:20:00.927Z,6.84
2019-04-10T04:22:29.317Z,6.84
2019-04-10T04:24:58.235Z,6.87
2019-04-10T04:27:27.117Z,6.83
2019-04-10T04:29:55.582Z,6.82
2019-04-10T04:32:24.066Z,6.78
2019-04-10T04:34:52.452Z,6.79
2019-04-10T04:37:20.936Z,6.75
2019-04-10T04:39:49.333Z,6.73
2019-04-10T04:42:17.735Z,6.69
2019-04-10T04:44:46.125Z,6.68
2019-04-10T04:47:15.570Z,6.65
2019-04-10T04:49:44.436Z,6.66
2019-04-10T04:52:14.193Z,6.67
2019-04-10T04:54:43.523Z,6.67
2019-04-10T04:57:12.773Z,6.66
2019-04-10T04:59:41.152Z,6.58
2019-04-10T05:02:10.082Z,6.61
2019-04-10T05:04:39.520Z,6.66
2019-04-10T05:07:08.349Z,6.68
2019-04-10T05:09:39.157Z,6.64
2019-04-10T05:12:07.195Z,6.64
2019-04-10T05:14:35.744Z,6.65
2019-04-10T05:17:04.070Z,6.67
2019-04-10T05:19:32.473Z,6.69
2019-04-10T05:22:01.659Z,6.66
2019-04-10T05:24:30.110Z,6.68
2019-04-10T05:26:59.190Z,6.64
2019-04-10T05:29:30.379Z,6.73
2019-04-10T05:31:58.725Z,6.74
2019-04-10T05:34:27.601Z,6.78
2019-04-10T05:36:56.875Z,6.83
2019-04-10T05:39:25.300Z,6.80
2019-04-10T05:41:54.811Z,6.80
2019-04-10T05:44:23.551Z,6.85
2019-04-10T05:46:52.686Z,6.81
2019-04-10T05:49:21.034Z,6.82
2019-04-10T05:51:50.100Z,6.80
2019-04-10T05:54:19.234Z,6.93
2019-04-10T05:56:47.656Z,6.97
2019-04-10T05:59:16.444Z,6.95
2019-04-10T06:01:45.722Z,7.01
2019-04-10T06:04:14.096Z,6.98
2019-04-10T06:06:42.479Z,7.04
2019-04-10T06:09:10.870Z,7.11
2019-04-10T06:11:39.826Z,7.15
2019-04-10T06:14:10.140Z,7.13
2019-04-10T06:16:38.551Z,7.10
2019-04-10T06:19:07.349Z,7.08
2019-04-10T06:21:35.766Z,7.12
2019-04-10T06:24:04.133Z,7.12
2019-04-10T06:26:32.761Z,7.16
2019-04-10T06:29:02.295Z,7.17
2019-04-10T06:31:30.765Z,7.09
2019-04-10T06:34:00.362Z,7.07
2019-04-10T06:36:29.148Z,7.02
2019-04-10T06:38:57.587Z,7.07
2019-04-10T06:41:26.404Z,7.12
2019-04-10T06:43:55.281Z,7.06
2019-04-10T06:46:24.333Z,7.07
2019-04-10T06:48:52.893Z,7.08
2019-04-10T06:51:21.729Z,7.03
2019-04-10T06:53:59.900Z,7.13
2019-04-10T06:56:20.847Z,7.13
2019-04-10T06:58:49.892Z,7.16
2019-04-10T07:01:20.994Z,7.17
2019-04-10T07:03:58.673Z,7.22
2019-04-10T07:06:21.950Z,7.31
2019-04-10T07:08:52.730Z,7.37
2019-04-10T07:11:21.518Z,7.51
2019-04-10T07:13:49.221Z,7.56
2019-04-10T07:16:17.986Z,7.63
2019-04-10T07:18:49.027Z,7.71
2019-04-10T07:21:16.771Z,7.72
2019-04-10T07:23:45.225Z,7.79
2019-04-10T07:26:18.536Z,7.87
2019-04-10T07:28:45.901Z,7.93
2019-04-10T07:31:14.089Z,8.01
2019-04-10T07:33:42.636Z,8.10
2019-04-10T07:36:13.642Z,8.15
2019-04-10T07:38:41.384Z,8.24
2019-04-10T07:41:15.413Z,8.29
2019-04-10T07:43:40.603Z,8.39
2019-04-10T07:46:09.039Z,8.40
2019-04-10T07:48:37.817Z,8.42
2019-04-10T07:51:06.987Z,8.42
2019-04-10T07:53:35.368Z,8.48
2019-04-10T07:56:07.555Z,8.52
2019-04-10T07:58:33.980Z,8.50
2019-04-10T08:01:02.449Z,8.44
2019-04-10T08:03:31.210Z,8.38
2019-04-10T08:06:00.353Z,8.34
2019-04-10T08:08:29.968Z,8.46
2019-04-10T08:10:59.395Z,8.47
2019-04-10T08:13:28.878Z,8.51
2019-04-10T08:15:58.389Z,8.62
2019-04-10T08:18:27.609Z,8.67
2019-04-10T08:20:57.164Z,8.76
2019-04-10T08:23:25.971Z,8.71
2019-04-10T08:25:56.016Z,8.66
2019-04-10T08:28:24.355Z,8.61
2019-04-10T08:30:52.744Z,8.64
2019-04-10T08:33:21.798Z,8.68
2019-04-10T08:35:50.310Z,8.66
2019-04-10T08:38:18.701Z,8.69
2019-04-10T08:40:48.126Z,8.67
2019-04-10T08:43:16.675Z,8.72
2019-04-10T08:45:50.037Z,8.68
2019-04-10T08:48:15.532Z,8.76
2019-04-10T08:50:44.051Z,8.87
2019-04-10T08:53:12.446Z,8.96
2019-04-10T08:55:42.020Z,9.03
2019-04-10T08:58:11.988Z,9.15
2019-04-10T09:00:40.737Z,9.22
2019-04-10T09:03:09.215Z,9.24
2019-04-10T09:05:37.799Z,9.29
2019-04-10T09:08:06.229Z,9.33
2019-04-10T09:10:34.667Z,9.43
2019-04-10T09:13:04.184Z,9.41
2019-04-10T09:15:32.743Z,9.47
2019-04-10T09:18:02.207Z,9.56
2019-04-10T09:20:30.981Z,9.66
2019-04-10T09:23:15.508Z,9.69
2019-04-10T09:25:29.505Z,9.78
2019-04-10T09:27:58.029Z,9.88
2019-04-10T09:30:26.931Z,10.01
2019-04-10T09:32:55.463Z,10.11
2019-04-10T09:35:24.636Z,10.15
2019-04-10T09:37:53.124Z,10.23
2019-04-10T09:40:22.431Z,10.27
2019-04-10T09:42:50.806Z,10.41
2019-04-10T09:45:20.388Z,10.56
2019-04-10T09:47:48.789Z,10.66
2019-04-10T09:50:17.335Z,10.80
2019-04-10T09:52:46.227Z,10.81
2019-04-10T09:55:15.924Z,10.89
2019-04-10T09:57:45.249Z,11.04
2019-04-10T10:00:15.260Z,11.15
2019-04-10T10:02:43.817Z,11.18
2019-04-10T10:05:12.648Z,11.21
2019-04-10T10:07:41.126Z,11.36
2019-04-10T10:10:10.638Z,11.53
2019-04-10T10:12:39.084Z,11.58
2019-04-10T10:15:09.573Z,11.71
2019-04-10T10:17:39.072Z,11.86
2019-04-10T10:20:08.342Z,11.97
2019-04-10T10:22:37.087Z,12.06
2019-04-10T10:25:07.491Z,12.06
2019-04-10T10:27:36.451Z,12.10
2019-04-10T10:30:11.605Z,12.04
2019-04-10T10:32:42.147Z,12.08
2019-04-10T10:35:11.258Z,12.10
2019-04-10T10:37:40.939Z,12.20
2019-04-10T10:40:10.209Z,12.29
2019-04-10T10:42:40.229Z,12.35
2019-04-10T10:45:10.531Z,12.35
2019-04-10T10:47:40.157Z,12.40
2019-04-10T10:50:09.282Z,12.45
2019-04-10T10:52:37.684Z,12.58
2019-04-10T10:55:07.656Z,12.62
2019-04-10T10:57:36.095Z,12.57
2019-04-10T11:00:08.404Z,12.50
2019-04-10T11:02:37.961Z,12.40
2019-04-10T11:05:07.198Z,12.47
2019-04-10T11:07:35.722Z,12.41
2019-04-10T11:10:06.992Z,12.48
2019-04-10T11:12:35.783Z,12.34
2019-04-10T11:15:05.998Z,12.48
2019-04-10T11:17:35.720Z,12.65
2019-04-10T11:20:08.097Z,12.68
2019-04-10T11:22:37.729Z,12.77
2019-04-10T11:25:07.954Z,12.76
2019-04-10T11:27:36.494Z,12.72
2019-04-10T11:30:08.267Z,12.80
2019-04-10T11:32:38.041Z,12.78
2019-04-10T11:35:07.710Z,12.76
2019-04-10T11:37:43.428Z,12.75
2019-04-10T11:40:08.763Z,12.90
2019-04-10T11:42:39.726Z,12.90
2019-04-10T11:45:10.551Z,12.91
2019-04-10T11:47:39.501Z,12.79
2019-04-10T11:52:44.857Z,12.90
2019-04-10T11:55:13.728Z,12.87
2019-04-10T11:57:39.317Z,12.93
2019-04-10T12:00:18.841Z,12.89
2019-04-10T12:02:45.859Z,12.93
2019-04-10T12:05:18.482Z,12.91
2019-04-10T12:12:43.931Z,12.74
2019-04-10T12:15:12.559Z,12.75
2019-04-10T12:17:40.971Z,12.76
2019-04-10T12:20:09.507Z,12.93
2019-04-10T12:22:38.024Z,12.98
2019-04-10T12:25:07.008Z,13.00
2019-04-10T12:27:35.481Z,13.09
2019-04-10T12:30:06.825Z,13.01
2019-04-10T12:32:35.371Z,13.00
2019-04-10T12:35:05.277Z,12.96
2019-04-10T12:37:33.675Z,12.84
2019-04-10T12:40:02.110Z,12.86
2019-04-10T12:42:30.508Z,12.79
2019-04-10T12:44:59.710Z,12.92
2019-04-10T12:47:28.083Z,12.93
2019-04-10T12:49:56.909Z,12.88
2019-04-10T12:52:26.829Z,12.96
2019-04-10T12:54:55.361Z,13.01
2019-04-10T12:57:23.754Z,13.01
2019-04-10T12:59:52.216Z,12.89
2019-04-10T13:02:22.578Z,12.96
2019-04-10T13:04:50.977Z,13.00
2019-04-10T13:07:19.428Z,13.00
2019-04-10T13:09:48.511Z,13.10
2019-04-10T13:12:17.523Z,13.16
2019-04-10T13:14:46.513Z,13.18
2019-04-10T13:17:15.137Z,13.17
2019-04-10T13:19:43.574Z,13.17
2019-04-10T13:22:11.987Z,13.25
2019-04-10T13:24:40.387Z,13.34
2019-04-10T13:27:08.776Z,13.46
2019-04-10T13:29:37.184Z,13.57
2019-04-10T13:32:06.250Z,13.45
2019-04-10T13:34:35.381Z,13.50
2019-04-10T13:37:04.115Z,13.55
2019-04-10T13:39:32.914Z,13.52
2019-04-10T13:42:01.365Z,13.51
2019-04-10T13:44:30.795Z,13.35
2019-04-10T13:46:59.492Z,13.29
2019-04-10T13:49:28.405Z,13.11
2019-04-10T13:51:56.842Z,13.19
2019-04-10T13:54:26.345Z,13.04
2019-04-10T13:56:55.227Z,13.12
2019-04-10T13:59:24.757Z,13.15
2019-04-10T14:01:53.251Z,13.18
2019-04-10T14:04:22.867Z,13.08
2019-04-10T14:06:53.525Z,13.04
2019-04-10T14:09:34.353Z,12.99
2019-04-10T14:11:53.472Z,12.82
2019-04-10T14:14:22.117Z,12.59
2019-04-10T14:16:50.514Z,12.41
2019-04-10T14:19:18.908Z,12.34
2019-04-10T14:21:47.320Z,12.31
2019-04-10T14:24:17.621Z,12.30
2019-04-10T14:26:52.745Z,12.39
2019-04-10T14:29:21.073Z,12.42
2019-04-10T14:31:51.101Z,12.39
2019-04-10T14:34:20.215Z,12.34
2019-04-10T14:36:49.673Z,12.42
2019-04-10T14:39:21.188Z,12.42
2019-04-10T14:41:49.766Z,12.32
2019-04-10T14:44:18.361Z,12.35
2019-04-10T14:46:46.850Z,12.43
2019-04-10T14:49:15.247Z,12.27
2019-04-10T14:51:44.390Z,12.38
2019-04-10T14:54:15.461Z,12.36
2019-04-10T14:56:44.251Z,12.33
2019-04-10T14:59:12.991Z,12.28
2019-04-10T15:01:42.046Z,12.31
2019-04-10T15:04:10.950Z,12.25
2019-04-10T15:06:41.746Z,12.11
2019-04-10T15:09:25.352Z,12.12
2019-04-10T15:11:49.498Z,12.17
2019-04-10T15:14:17.885Z,12.16
2019-04-10T15:16:54.363Z,12.11
2019-04-10T15:19:16.420Z,12.12
2019-04-10T15:21:45.147Z,12.08
2019-04-10T15:24:13.524Z,12.07
2019-04-10T15:26:41.916Z,12.15
2019-04-10T15:29:10.336Z,12.16
2019-04-10T15:31:39.687Z,12.22
2019-04-10T15:34:08.053Z,12.23
2019-04-10T15:36:36.447Z,12.28
2019-04-10T15:39:07.072Z,12.26
2019-04-10T15:41:35.540Z,12.22
2019-04-10T15:44:04.086Z,12.23
2019-04-10T15:46:33.125Z,12.17
2019-04-10T15:49:02.679Z,12.04
2019-04-10T15:51:32.038Z,12.01
2019-04-10T15:54:01.262Z,12.03
2019-04-10T15:56:29.927Z,11.98
2019-04-10T15:58:58.332Z,12.05
2019-04-10T16:01:28.414Z,12.04
2019-04-10T16:03:56.965Z,11.96
2019-04-10T16:06:25.485Z,11.96
2019-04-10T16:08:53.904Z,11.93
2019-04-10T16:11:27.935Z,11.90
2019-04-10T16:13:59.073Z,11.86
2019-04-10T16:16:31.939Z,11.83
2019-04-10T16:19:20.457Z,11.76
2019-04-10T16:21:50.009Z,11.77
2019-04-10T16:24:20.598Z,11.77
2019-04-10T16:26:49.630Z,11.82
2019-04-10T16:29:18.219Z,11.85
2019-04-10T16:31:46.602Z,11.79
2019-04-10T16:34:15.659Z,11.77
2019-04-10T16:36:44.054Z,11.68
2019-04-10T16:39:15.453Z,11.69
2019-04-10T16:41:44.062Z,11.68
2019-04-10T16:44:13.070Z,11.67
2019-04-10T16:46:42.518Z,11.66
2019-04-10T16:49:11.008Z,11.67
2019-04-10T16:51:40.580Z,11.63
2019-04-10T16:54:08.984Z,11.51
2019-04-10T16:56:38.035Z,11.53
2019-04-10T16:59:06.692Z,11.52
2019-04-10T17:01:35.251Z,11.46
2019-04-10T17:04:04.773Z,11.46
2019-04-10T17:06:34.248Z,11.48
2019-04-10T17:09:02.967Z,11.44
2019-04-10T17:11:31.994Z,11.42
2019-04-10T17:14:00.392Z,11.42
2019-04-10T17:16:29.403Z,11.41
2019-04-10T17:18:59.282Z,11.37
2019-04-10T17:21:30.549Z,11.37
2019-04-10T17:23:58.773Z,11.36
2019-04-10T17:26:27.212Z,11.31
2019-04-10T17:28:56.670Z,11.29
2019-04-10T17:31:26.644Z,11.24
2019-04-10T17:33:56.521Z,11.26
2019-04-10T17:36:25.512Z,11.24
2019-04-10T17:38:55.137Z,11.18
2019-04-10T17:41:23.848Z,11.16
2019-04-10T17:43:54.241Z,11.15
2019-04-10T17:46:22.815Z,11.12
2019-04-10T17:48:51.751Z,11.13
2019-04-10T17:51:21.849Z,11.10
2019-04-10T17:53:50.531Z,11.11
2019-04-10T17:56:20.125Z,11.08
2019-04-10T17:58:49.728Z,10.97
2019-04-10T18:01:20.864Z,11.00
2019-04-10T18:03:53.687Z,10.99
2019-04-10T18:06:21.374Z,10.98
2019-04-10T18:08:49.976Z,10.94
2019-04-10T18:11:18.441Z,10.93
2019-04-10T18:13:46.944Z,10.92
2019-04-10T18:16:15.403Z,10.88
2019-04-10T18:18:45.723Z,10.88
2019-04-10T18:21:15.052Z,10.84
2019-04-10T18:23:43.955Z,10.82
2019-04-10T18:26:12.469Z,10.81
2019-04-10T18:28:41.492Z,10.76
2019-04-10T18:31:10.364Z,10.78
2019-04-10T18:33:38.765Z,10.74
2019-04-10T18:36:07.187Z,10.74
2019-04-10T18:38:35.641Z,10.70
2019-04-10T18:41:07.038Z,10.67
2019-04-10T18:43:34.252Z,10.65
2019-04-10T18:46:10.727Z,10.64
2019-04-10T18:48:32.770Z,10.63
2019-04-10T18:51:01.492Z,10.61
2019-04-10T18:53:30.040Z,10.58
2019-04-10T18:55:58.650Z,10.56
2019-04-10T18:58:29.725Z,10.55
2019-04-10T19:01:14.271Z,10.53
2019-04-10T19:03:59.675Z,10.54
2019-04-10T19:06:28.854Z,10.55
2019-04-10T19:11:33.257Z,10.49
2019-04-10T19:13:57.513Z,10.47
2019-04-10T19:16:27.688Z,10.43
2019-04-10T19:18:56.886Z,10.40
2019-04-10T19:21:25.320Z,10.35
2019-04-10T19:23:55.486Z,10.32
2019-04-10T19:26:24.976Z,10.31
2019-04-10T19:28:53.426Z,10.30
2019-04-10T19:31:26.414Z,10.26
2019-04-10T19:33:56.782Z,10.27
2019-04-10T19:36:25.843Z,10.25
2019-04-10T19:38:54.330Z,10.24
2019-04-10T19:41:30.762Z,10.25
2019-04-10T19:43:52.900Z,10.24
2019-04-10T19:46:21.603Z,10.23
2019-04-10T19:48:51.845Z,10.23
2019-04-10T19:51:20.109Z,10.22
2019-04-10T19:53:49.160Z,10.20
2019-04-10T19:56:18.165Z,10.21
2019-04-10T19:58:46.551Z,10.17
2019-04-10T20:01:14.944Z,10.11
2019-04-10T20:03:44.352Z,10.08
2019-04-10T20:06:12.705Z,10.06
2019-04-10T20:08:41.926Z,10.09
2019-04-10T20:11:10.815Z,10.04
2019-04-10T20:13:39.206Z,10.05
2019-04-10T20:16:07.629Z,9.98
2019-04-10T20:18:37.017Z,9.91
2019-04-10T20:21:05.854Z,9.92
2019-04-10T20:23:34.370Z,9.90
2019-04-10T20:26:03.336Z,9.87
2019-04-10T20:28:33.018Z,9.90
2019-04-10T20:31:02.864Z,9.90
2019-04-10T20:33:32.544Z,9.82
2019-04-10T20:36:00.997Z,9.81
2019-04-10T20:38:31.830Z,9.78
2019-04-10T20:41:00.409Z,9.70
2019-04-10T20:43:30.583Z,9.72
2019-04-10T20:46:00.022Z,9.71
2019-04-10T20:48:28.747Z,9.71
2019-04-10T20:50:57.387Z,9.64
2019-04-10T20:53:26.807Z,9.63
2019-04-10T20:55:55.266Z,9.58
2019-04-10T20:58:23.669Z,9.56
2019-04-10T21:00:52.069Z,9.49
2019-04-10T21:03:20.472Z,9.45
2019-04-10T21:05:48.881Z,9.42
2019-04-10T21:08:19.851Z,9.43
2019-04-10T21:10:49.255Z,9.39
2019-04-10T21:13:19.068Z,9.34
2019-04-10T21:15:48.479Z,9.30
2019-04-10T21:18:17.419Z,9.17
2019-04-10T21:20:45.837Z,9.14
2019-04-10T21:23:15.129Z,9.11
2019-04-10T21:25:45.575Z,9.05
2019-04-10T21:28:14.209Z,8.97
2019-04-10T21:31:00.772Z,8.92
2019-04-10T21:33:33.734Z,8.82
2019-04-10T21:36:02.125Z,8.70
2019-04-10T21:38:30.512Z,8.65
2019-04-10T21:40:59.503Z,8.62
2019-04-10T21:43:28.230Z,8.56
2019-04-10T21:45:57.462Z,8.47
2019-04-10T21:48:26.501Z,8.37
2019-04-10T21:50:54.944Z,8.29
2019-04-10T21:53:24.026Z,8.24
2019-04-10T21:55:53.572Z,8.14
2019-04-10T21:58:22.076Z,8.08
2019-04-10T22:01:01.383Z,8.00
2019-04-10T22:03:30.123Z,7.94
2019-04-10T22:06:17.645Z,7.84
2019-04-10T22:08:48.076Z,7.74
2019-04-10T22:11:16.989Z,7.65
2019-04-10T22:13:48.642Z,7.60
2019-04-10T22:16:19.767Z,7.54
2019-04-10T22:18:50.040Z,7.48
2019-04-10T22:21:18.646Z,7.39
2019-04-10T22:23:47.273Z,7.25
2019-04-10T22:26:15.821Z,7.17
2019-04-10T22:28:45.417Z,7.24
2019-04-10T22:31:13.938Z,7.24
2019-04-10T22:33:42.672Z,7.15
2019-04-10T22:36:11.078Z,7.05
2019-04-10T22:38:39.924Z,6.94
2019-04-10T22:41:19.761Z,6.94
2019-04-10T22:43:38.732Z,6.87
2019-04-10T22:46:07.195Z,6.78
2019-04-10T22:48:35.588Z,6.78
2019-04-10T22:51:04.052Z,6.73
2019-04-10T22:53:33.128Z,6.67
2019-04-10T22:56:01.543Z,6.62
2019-04-10T22:58:29.928Z,6.59
2019-04-10T23:00:58.338Z,6.58
2019-04-10T23:03:27.889Z,6.58
2019-04-10T23:05:56.566Z,6.56
2019-04-10T23:08:25.353Z,6.53
2019-04-10T23:10:53.731Z,6.51
2019-04-10T23:13:22.119Z,6.49
2019-04-10T23:15:51.467Z,6.38
2019-04-10T23:18:19.896Z,6.39
2019-04-10T23:20:48.311Z,6.38
2019-04-10T23:23:16.908Z,6.38
2019-04-10T23:25:45.347Z,6.38
2019-04-10T23:28:13.766Z,6.37
2019-04-10T23:30:43.392Z,6.34
2019-04-10T23:33:12.193Z,6.35
2019-04-10T23:35:41.282Z,6.35
2019-04-10T23:38:09.781Z,6.33
2019-04-10T23:40:38.349Z,6.30
2019-04-10T23:43:12.995Z,6.30
2019-04-10T23:45:37.815Z,6.27
2019-04-10T23:48:06.683Z,6.23
2019-04-10T23:50:35.154Z,6.19
2019-04-10T23:53:04.511Z,6.14
2019-04-10T23:55:32.987Z,6.09
2019-04-10T23:58:02.098Z,6.04
